createdAt,value
2023-03-21T00:03:10.181Z,10.76
2023-03-21T00:06:06.124Z,10.79
2023-03-21T00:08:58.192Z,10.83
2023-03-21T00:11:50.422Z,10.84
2023-03-21T00:14:26.116Z,10.84
2023-03-21T00:17:01.266Z,10.82
2023-03-21T00:19:56.035Z,10.78
2023-03-21T00:22:48.287Z,10.75
2023-03-21T00:25:40.408Z,10.71
2023-03-21T00:28:32.447Z,10.66
2023-03-21T00:31:24.518Z,10.62
2023-03-21T00:34:20.146Z,10.61
2023-03-21T00:37:01.855Z,10.67
2023-03-21T00:39:54.200Z,10.67
2023-03-21T00:42:43.223Z,10.68
2023-03-21T00:45:35.673Z,10.72
2023-03-21T00:48:16.768Z,10.72
2023-03-21T00:51:16.059Z,10.69
2023-03-21T00:54:08.118Z,10.70
2023-03-21T00:57:01.502Z,10.70
2023-03-21T00:59:53.488Z,10.70
2023-03-21T01:03:02.674Z,10.69
2023-03-21T01:06:07.443Z,10.65
2023-03-21T01:08:59.916Z,10.62
2023-03-21T01:11:43.704Z,10.57
2023-03-21T01:14:35.727Z,10.53
2023-03-21T01:17:27.695Z,10.53
2023-03-21T01:20:16.490Z,10.57
2023-03-21T01:23:08.489Z,10.57
2023-03-21T01:26:00.738Z,10.57
2023-03-21T01:28:35.967Z,10.60
2023-03-21T01:31:27.990Z,10.61
2023-03-21T01:34:08.633Z,10.56
2023-03-21T01:37:00.725Z,10.58
2023-03-21T01:39:52.861Z,10.61
2023-03-21T01:42:44.904Z,10.61
2023-03-21T01:46:11.340Z,10.60
2023-03-21T01:49:05.693Z,10.60
2023-03-21T01:52:06.528Z,10.57
2023-03-21T01:55:06.912Z,10.51
2023-03-21T01:58:05.980Z,10.47
2023-03-21T02:00:51.084Z,10.44
2023-03-21T02:03:51.222Z,10.43
2023-03-21T02:06:52.055Z,10.48
2023-03-21T02:09:48.415Z,10.50
2023-03-21T02:12:20.857Z,10.50
2023-03-21T02:15:14.471Z,10.52
2023-03-21T02:18:15.438Z,10.54
2023-03-21T02:21:31.988Z,10.57
2023-03-21T02:25:01.218Z,10.60
2023-03-21T02:28:01.813Z,10.59
2023-03-21T02:31:16.425Z,10.56
2023-03-21T02:34:43.059Z,10.52
2023-03-21T02:37:42.935Z,10.50
2023-03-21T02:40:42.796Z,10.46
2023-03-21T02:43:43.882Z,10.43
2023-03-21T02:46:45.566Z,10.38
2023-03-21T02:49:46.038Z,10.36
2023-03-21T02:52:37.343Z,10.42
2023-03-21T02:55:34.685Z,10.44
2023-03-21T02:58:29.829Z,10.47
2023-03-21T03:01:22.034Z,10.51
2023-03-21T03:04:26.700Z,10.55
2023-03-21T03:07:28.187Z,10.59
2023-03-21T03:10:26.091Z,10.61
2023-03-21T03:13:36.521Z,10.59
2023-03-21T03:16:22.542Z,10.54
2023-03-21T03:19:23.068Z,10.51
2023-03-21T03:22:04.199Z,10.48
2023-03-21T03:25:12.580Z,10.44
2023-03-21T03:28:12.827Z,10.39
2023-03-21T03:31:09.783Z,10.35
2023-03-21T03:33:56.309Z,10.33
2023-03-21T03:36:56.233Z,10.32
2023-03-21T03:39:52.824Z,10.39
2023-03-21T03:42:48.552Z,10.40
2023-03-21T03:45:48.696Z,10.42
2023-03-21T03:48:48.184Z,10.48
2023-03-21T03:51:44.877Z,10.53
2023-03-21T03:54:24.225Z,10.55
2023-03-21T03:57:16.961Z,10.58
2023-03-21T04:00:15.479Z,10.58
2023-03-21T04:03:09.864Z,10.58
2023-03-21T04:05:42.392Z,10.55
2023-03-21T04:08:34.489Z,10.53
2023-03-21T04:11:27.809Z,10.51
2023-03-21T04:14:19.784Z,10.48
2023-03-21T04:17:12.257Z,10.44
2023-03-21T04:20:12.093Z,10.40
2023-03-21T04:23:08.865Z,10.38
2023-03-21T04:26:00.924Z,10.43
2023-03-21T04:28:53.664Z,10.44
2023-03-21T04:31:46.038Z,10.46
2023-03-21T04:34:40.285Z,10.49
2023-03-21T04:37:33.818Z,10.53
2023-03-21T04:40:26.228Z,10.54
2023-03-21T04:43:18.199Z,10.56
2023-03-21T04:46:10.426Z,10.54
2023-03-21T04:49:03.016Z,10.51
2023-03-21T04:51:45.943Z,10.48
2023-03-21T04:54:38.017Z,10.45
2023-03-21T04:57:30.023Z,10.42
2023-03-21T05:00:23.540Z,10.40
2023-03-21T05:03:19.755Z,10.37
2023-03-21T05:06:12.519Z,10.31
2023-03-21T05:09:07.048Z,10.31
2023-03-21T05:11:58.923Z,10.38
2023-03-21T05:14:51.062Z,10.38
2023-03-21T05:17:43.107Z,10.38
2023-03-21T05:20:24.043Z,10.41
2023-03-21T05:23:18.588Z,10.44
2023-03-21T05:26:12.327Z,10.42
2023-03-21T05:29:04.380Z,10.39
2023-03-21T05:31:56.441Z,10.34
2023-03-21T05:34:48.508Z,10.28
2023-03-21T05:37:25.945Z,10.25
2023-03-21T05:40:18.271Z,10.22
2023-03-21T05:43:10.233Z,10.21
2023-03-21T05:46:02.316Z,10.21
2023-03-21T05:48:54.390Z,10.29
2023-03-21T05:51:46.424Z,10.28
2023-03-21T05:54:38.414Z,10.26
2023-03-21T05:57:30.674Z,10.23
2023-03-21T06:00:23.364Z,10.24
2023-03-21T06:03:15.345Z,10.27
2023-03-21T06:05:57.535Z,10.28
2023-03-21T06:08:49.840Z,10.30
2023-03-21T06:11:51.875Z,10.34
2023-03-21T06:14:43.972Z,10.38
2023-03-21T06:17:36.053Z,10.41
2023-03-21T06:20:28.085Z,10.46
2023-03-21T06:23:20.133Z,10.56
2023-03-21T06:26:12.091Z,10.61
2023-03-21T06:29:04.401Z,10.66
2023-03-21T06:31:56.457Z,10.72
2023-03-21T06:34:48.478Z,10.77
2023-03-21T06:37:40.436Z,10.81
2023-03-21T06:40:32.433Z,10.85
2023-03-21T06:43:24.694Z,10.83
2023-03-21T06:46:16.746Z,10.80
2023-03-21T06:49:08.762Z,10.79
2023-03-21T06:51:45.856Z,10.79
2023-03-21T06:54:38.183Z,10.79
2023-03-21T06:57:30.171Z,10.78
2023-03-21T07:00:24.474Z,10.78
2023-03-21T07:03:15.179Z,10.86
2023-03-21T07:06:13.464Z,10.84
2023-03-21T07:08:57.274Z,10.82
2023-03-21T07:11:50.367Z,10.88
2023-03-21T07:14:42.368Z,10.96
2023-03-21T07:17:19.404Z,10.96
2023-03-21T07:20:14.081Z,10.97
2023-03-21T07:23:06.426Z,10.99
2023-03-21T07:25:58.569Z,10.97
2023-03-21T07:28:50.677Z,10.96
2023-03-21T07:31:42.780Z,10.90
2023-03-21T07:34:35.018Z,10.88
2023-03-21T07:37:27.019Z,10.90
2023-03-21T07:40:19.658Z,10.93
2023-03-21T07:43:11.818Z,10.99
2023-03-21T07:46:04.150Z,11.02
2023-03-21T07:48:56.218Z,11.04
2023-03-21T07:51:48.225Z,11.09
2023-03-21T07:54:40.361Z,11.14
2023-03-21T07:57:32.410Z,11.20
2023-03-21T08:00:22.778Z,11.23
2023-03-21T08:03:14.982Z,11.25
2023-03-21T08:06:08.017Z,11.24
2023-03-21T08:08:59.952Z,11.17
2023-03-21T08:11:51.978Z,11.13
2023-03-21T08:14:44.486Z,11.19
2023-03-21T08:17:38.018Z,11.29
2023-03-21T08:20:30.084Z,11.34
2023-03-21T08:23:10.964Z,11.41
2023-03-21T08:26:03.225Z,11.42
2023-03-21T08:28:55.784Z,11.43
2023-03-21T08:31:47.780Z,11.47
2023-03-21T08:34:29.646Z,11.54
2023-03-21T08:37:21.644Z,11.62
2023-03-21T08:40:07.028Z,11.61
2023-03-21T08:42:59.381Z,11.61
2023-03-21T08:45:51.456Z,11.61
2023-03-21T08:48:43.436Z,11.58
2023-03-21T08:51:18.021Z,11.60
2023-03-21T08:54:17.612Z,11.72
2023-03-21T08:57:10.985Z,11.77
2023-03-21T08:59:59.524Z,11.81
2023-03-21T09:02:54.249Z,11.87
2023-03-21T09:05:46.638Z,11.85
2023-03-21T09:08:18.411Z,11.83
2023-03-21T09:11:11.107Z,11.84
2023-03-21T09:14:03.329Z,11.83
2023-03-21T09:16:41.243Z,11.83
2023-03-21T09:19:24.208Z,11.84
2023-03-21T09:22:17.402Z,11.79
2023-03-21T09:25:11.375Z,11.69
2023-03-21T09:28:05.343Z,11.65
2023-03-21T09:31:00.412Z,11.65
2023-03-21T09:33:53.680Z,11.67
2023-03-21T09:36:48.431Z,11.81
2023-03-21T09:39:40.934Z,11.91
2023-03-21T09:42:41.440Z,11.99
2023-03-21T09:45:42.188Z,12.06
2023-03-21T09:48:56.106Z,12.13
2023-03-21T09:51:52.754Z,12.16
2023-03-21T09:54:45.203Z,12.20
2023-03-21T09:57:40.081Z,12.23
2023-03-21T10:00:37.363Z,12.22
2023-03-21T10:03:35.065Z,12.25
2023-03-21T10:06:30.547Z,12.26
2023-03-21T10:09:24.967Z,12.25
2023-03-21T10:12:21.968Z,12.23
2023-03-21T10:15:19.795Z,12.19
2023-03-21T10:18:30.445Z,12.22
2023-03-21T10:21:51.296Z,12.26
2023-03-21T10:24:37.911Z,12.37
2023-03-21T10:27:30.253Z,12.38
2023-03-21T10:30:36.213Z,12.41
2023-03-21T10:33:30.867Z,12.46
2023-03-21T10:36:12.745Z,12.49
2023-03-21T10:39:08.201Z,12.53
2023-03-21T10:42:00.388Z,12.60
2023-03-21T10:44:49.854Z,12.61
2023-03-21T10:47:25.692Z,12.59
2023-03-21T10:50:25.650Z,12.63
2023-03-21T10:53:21.932Z,12.66
2023-03-21T10:56:14.709Z,12.68
2023-03-21T10:59:10.280Z,12.65
2023-03-21T11:02:04.475Z,12.61
2023-03-21T11:04:58.292Z,12.56
2023-03-21T11:07:33.924Z,12.56
2023-03-21T11:10:32.081Z,12.51
2023-03-21T11:13:28.246Z,12.42
2023-03-21T11:16:10.504Z,12.36
2023-03-21T11:19:13.305Z,12.36
2023-03-21T11:21:47.906Z,12.40
2023-03-21T11:24:31.785Z,12.56
2023-03-21T11:27:24.772Z,12.69
2023-03-21T11:30:02.117Z,12.79
2023-03-21T11:32:38.503Z,12.91
2023-03-21T11:35:22.761Z,13.01
2023-03-21T11:38:25.892Z,13.12
2023-03-21T11:41:25.472Z,13.19
2023-03-21T11:44:29.705Z,13.23
2023-03-21T11:47:22.030Z,13.20
2023-03-21T11:50:33.733Z,13.16
2023-03-21T11:53:35.445Z,13.13
2023-03-21T11:56:30.428Z,13.12
2023-03-21T11:59:33.778Z,13.04
2023-03-21T12:03:07.874Z,12.93
2023-03-21T12:05:53.612Z,12.82
2023-03-21T12:08:52.561Z,12.73
2023-03-21T12:11:53.157Z,12.68
2023-03-21T12:14:55.452Z,12.70
2023-03-21T12:17:56.013Z,12.73
2023-03-21T12:20:41.371Z,12.73
2023-03-21T12:23:56.305Z,12.67
2023-03-21T12:26:53.206Z,12.60
2023-03-21T12:29:41.254Z,12.53
2023-03-21T12:32:35.725Z,12.53
2023-03-21T12:35:41.654Z,12.55
2023-03-21T12:38:29.516Z,12.55
2023-03-21T12:41:27.820Z,12.59
2023-03-21T12:44:23.520Z,12.70
2023-03-21T12:47:20.909Z,12.85
2023-03-21T12:50:21.016Z,12.81
2023-03-21T12:53:31.136Z,12.72
2023-03-21T12:56:28.493Z,12.73
2023-03-21T12:59:28.831Z,12.76
2023-03-21T13:02:27.577Z,12.79
2023-03-21T13:05:25.110Z,12.84
2023-03-21T13:08:23.183Z,12.83
2023-03-21T13:11:18.610Z,12.81
2023-03-21T13:14:18.891Z,12.80
2023-03-21T13:17:19.954Z,12.85
2023-03-21T13:20:23.542Z,12.93
2023-03-21T13:23:18.455Z,12.98
2023-03-21T13:26:13.121Z,13.08
2023-03-21T13:29:23.951Z,13.12
2023-03-21T13:32:38.387Z,13.09
2023-03-21T13:35:38.563Z,13.05
2023-03-21T13:38:40.196Z,12.91
2023-03-21T13:41:21.630Z,12.86
2023-03-21T13:44:25.731Z,12.77
2023-03-21T13:47:36.454Z,12.72
2023-03-21T13:50:34.701Z,12.65
2023-03-21T13:53:37.333Z,12.63
2023-03-21T13:56:27.289Z,12.62
2023-03-21T13:59:37.048Z,12.64
2023-03-21T14:02:35.915Z,12.62
2023-03-21T14:05:30.763Z,12.62
2023-03-21T14:08:36.499Z,12.60
2023-03-21T14:11:30.099Z,12.61
2023-03-21T14:14:25.653Z,12.61
2023-03-21T14:17:23.763Z,12.66
2023-03-21T14:20:20.881Z,12.78
2023-03-21T14:23:00.292Z,12.85
2023-03-21T14:25:53.390Z,12.87
2023-03-21T14:28:53.933Z,12.94
2023-03-21T14:31:48.750Z,13.00
2023-03-21T14:34:26.047Z,13.04
2023-03-21T14:37:31.975Z,13.06
2023-03-21T14:40:27.938Z,13.04
2023-03-21T14:43:21.374Z,13.02
2023-03-21T14:46:15.718Z,12.91
2023-03-21T14:48:53.009Z,12.81
2023-03-21T14:51:46.891Z,12.72
2023-03-21T14:54:42.561Z,12.66
2023-03-21T14:57:35.529Z,12.57
2023-03-21T15:00:30.319Z,12.49
2023-03-21T15:03:24.534Z,12.42
2023-03-21T15:06:17.567Z,12.33
2023-03-21T15:09:16.963Z,12.27
2023-03-21T15:12:12.368Z,12.20
2023-03-21T15:15:05.763Z,12.15
2023-03-21T15:17:52.746Z,12.11
2023-03-21T15:20:47.913Z,12.06
2023-03-21T15:23:43.122Z,11.99
2023-03-21T15:26:26.398Z,11.96
2023-03-21T15:29:19.446Z,11.90
2023-03-21T15:32:17.551Z,11.87
2023-03-21T15:35:16.492Z,11.85
2023-03-21T15:38:08.549Z,11.81
2023-03-21T15:41:29.314Z,11.77
2023-03-21T15:44:24.279Z,11.79
2023-03-21T15:47:17.286Z,11.85
2023-03-21T15:50:17.995Z,11.87
2023-03-21T15:53:15.693Z,11.91
2023-03-21T15:56:15.980Z,11.94
2023-03-21T15:59:12.772Z,11.97
2023-03-21T16:02:06.042Z,11.99
2023-03-21T16:05:00.306Z,11.98
2023-03-21T16:07:48.695Z,11.98
2023-03-21T16:10:41.426Z,11.98
2023-03-21T16:13:19.022Z,11.91
2023-03-21T16:16:16.950Z,11.87
2023-03-21T16:19:09.226Z,11.84
2023-03-21T16:22:01.238Z,11.81
2023-03-21T16:24:44.400Z,11.80
2023-03-21T16:27:36.585Z,11.75
2023-03-21T16:30:22.139Z,11.70
2023-03-21T16:33:15.246Z,11.65
2023-03-21T16:36:10.066Z,11.61
2023-03-21T16:38:53.911Z,11.57
2023-03-21T16:41:46.360Z,11.52
2023-03-21T16:44:39.468Z,11.45
2023-03-21T16:47:31.730Z,11.41
2023-03-21T16:50:27.376Z,11.39
2023-03-21T16:53:19.845Z,11.34
2023-03-21T16:56:17.972Z,11.34
2023-03-21T16:59:12.155Z,11.40
2023-03-21T17:02:13.306Z,11.39
2023-03-21T17:05:07.155Z,11.41
2023-03-21T17:08:02.177Z,11.45
2023-03-21T17:10:54.205Z,11.48
2023-03-21T17:13:47.514Z,11.50
2023-03-21T17:16:26.863Z,11.51
2023-03-21T17:19:23.971Z,11.49
2023-03-21T17:22:16.190Z,11.47
2023-03-21T17:25:08.638Z,11.45
2023-03-21T17:27:43.337Z,11.41
2023-03-21T17:30:39.982Z,11.34
2023-03-21T17:33:22.679Z,11.28
2023-03-21T17:36:18.422Z,11.23
2023-03-21T17:39:16.264Z,11.19
2023-03-21T17:42:18.137Z,11.16
2023-03-21T17:45:11.866Z,11.11
2023-03-21T17:48:04.426Z,11.05
2023-03-21T17:50:56.623Z,11.01
2023-03-21T17:53:51.200Z,10.96
2023-03-21T17:56:40.840Z,10.97
2023-03-21T17:59:32.823Z,11.04
2023-03-21T18:02:13.703Z,11.05
2023-03-21T18:05:06.593Z,11.07
2023-03-21T18:10:54.676Z,11.14
2023-03-21T18:13:48.010Z,11.17
2023-03-21T18:16:24.527Z,11.19
2023-03-21T18:19:15.345Z,11.20
2023-03-21T18:22:07.705Z,11.16
2023-03-21T18:25:00.370Z,11.13
2023-03-21T18:28:09.806Z,11.09
2023-03-21T18:31:12.174Z,11.02
2023-03-21T18:33:58.364Z,10.96
2023-03-21T18:36:50.397Z,10.91
2023-03-21T18:39:44.513Z,10.87
2023-03-21T18:42:36.755Z,10.82
2023-03-21T18:45:29.050Z,10.74
2023-03-21T18:48:13.275Z,10.69
2023-03-21T18:51:05.697Z,10.66
2023-03-21T18:53:59.902Z,10.68
2023-03-21T19:00:10.347Z,10.75
2023-03-21T19:03:17.025Z,10.79
2023-03-21T19:06:03.655Z,10.82
2023-03-21T19:08:55.926Z,10.83
2023-03-21T19:11:48.603Z,10.87
2023-03-21T19:14:40.697Z,10.90
2023-03-21T19:18:30.238Z,10.92
2023-03-21T19:20:47.466Z,10.96
2023-03-21T19:24:17.992Z,10.95
2023-03-21T19:26:51.833Z,10.92
2023-03-21T19:29:55.614Z,10.86
2023-03-21T19:32:51.821Z,10.80
2023-03-21T19:35:46.564Z,10.77
2023-03-21T19:38:38.677Z,10.72
2023-03-21T19:41:20.222Z,10.67
2023-03-21T19:44:12.480Z,10.63
2023-03-21T19:47:04.515Z,10.58
2023-03-21T19:53:09.070Z,10.46
2023-03-21T19:55:54.106Z,10.43
2023-03-21T19:58:47.542Z,10.48
2023-03-21T20:01:39.658Z,10.47
2023-03-21T20:04:32.114Z,10.47
2023-03-21T20:07:24.060Z,10.49
2023-03-21T20:10:16.713Z,10.54
2023-03-21T20:12:58.632Z,10.53
2023-03-21T20:15:54.989Z,10.53
2023-03-21T20:18:47.684Z,10.52
2023-03-21T20:21:48.558Z,10.52
2023-03-21T20:24:43.093Z,10.49
2023-03-21T20:27:39.279Z,10.46
2023-03-21T20:30:32.248Z,10.40
2023-03-21T20:33:24.280Z,10.36
2023-03-21T20:39:29.928Z,10.31
2023-03-21T20:42:22.767Z,10.26
2023-03-21T20:45:17.080Z,10.20
2023-03-21T20:48:07.855Z,10.13
2023-03-21T20:50:58.804Z,10.07
2023-03-21T20:53:53.982Z,10.06
2023-03-21T20:56:46.393Z,10.11
2023-03-21T20:59:38.427Z,10.12
2023-03-21T21:02:30.595Z,10.12
2023-03-21T21:05:27.801Z,10.17
2023-03-21T21:08:21.388Z,10.19
2023-03-21T21:14:26.667Z,10.21
2023-03-21T21:17:31.140Z,10.21
2023-03-21T21:20:33.672Z,10.15
2023-03-21T21:23:27.653Z,10.03
2023-03-21T21:26:19.815Z,9.98
2023-03-21T21:29:11.888Z,9.96
2023-03-21T21:31:52.157Z,9.94
2023-03-21T21:34:44.247Z,9.92
2023-03-21T21:37:36.411Z,9.86
2023-03-21T21:40:29.568Z,9.79
2023-03-21T21:43:22.989Z,9.72
2023-03-21T21:46:15.615Z,9.67
2023-03-21T21:49:07.615Z,9.72
2023-03-21T21:51:59.802Z,9.71
2023-03-21T21:54:51.791Z,9.73
2023-03-21T21:57:43.771Z,9.78
2023-03-21T22:00:18.395Z,9.78
2023-03-21T22:02:53.253Z,9.79
2023-03-21T22:05:46.083Z,9.79
2023-03-21T22:08:38.659Z,9.77
2023-03-21T22:11:30.756Z,9.75
2023-03-21T22:14:22.880Z,9.71
2023-03-21T22:17:14.887Z,9.63
2023-03-21T22:20:09.559Z,9.61
2023-03-21T22:22:47.073Z,9.58
2023-03-21T22:25:39.263Z,9.53
2023-03-21T22:28:31.620Z,9.51
2023-03-21T22:31:25.880Z,9.47
2023-03-21T22:34:16.488Z,9.45
2023-03-21T22:37:00.063Z,9.39
2023-03-21T22:39:52.115Z,9.36
2023-03-21T22:42:32.885Z,9.34
2023-03-21T22:45:24.956Z,9.38
2023-03-21T22:47:58.145Z,9.36
2023-03-21T22:50:41.080Z,9.39
2023-03-21T22:53:33.328Z,9.42
2023-03-21T22:56:25.395Z,9.46
2023-03-21T22:59:17.399Z,9.47
2023-03-21T23:02:10.048Z,9.48
2023-03-21T23:05:02.082Z,9.46
2023-03-21T23:07:54.160Z,9.34
2023-03-21T23:10:47.639Z,9.22
2023-03-21T23:13:41.170Z,8.96
2023-03-21T23:16:34.826Z,8.82
2023-03-21T23:19:11.777Z,8.77
2023-03-21T23:22:02.270Z,8.78
2023-03-21T23:24:54.332Z,8.85
2023-03-21T23:27:29.857Z,8.92
2023-03-21T23:30:21.836Z,9.01
2023-03-21T23:33:13.810Z,9.11
2023-03-21T23:35:51.098Z,9.19
2023-03-21T23:38:22.995Z,9.22
2023-03-21T23:41:17.693Z,9.28
2023-03-21T23:43:59.578Z,9.29
2023-03-21T23:46:33.982Z,9.27
2023-03-21T23:49:16.071Z,9.23
2023-03-21T23:52:08.220Z,9.21
2023-03-21T23:55:00.168Z,9.20
2023-03-21T23:57:58.824Z,9.15
